createdAt,value
2023-02-15T00:04:02.050Z,53.64
2023-02-15T00:09:03.760Z,54.40
2023-02-15T00:14:08.942Z,55.13
2023-02-15T00:19:11.130Z,55.58
2023-02-15T00:24:13.932Z,55.45
2023-02-15T00:29:16.245Z,54.81
2023-02-15T00:34:23.248Z,55.58
2023-02-15T00:39:25.504Z,55.55
2023-02-15T00:44:27.277Z,55.03
2023-02-15T00:49:28.972Z,55.25
2023-02-15T00:54:30.445Z,54.81
2023-02-15T00:59:31.894Z,56.31
2023-02-15T01:04:33.647Z,56.13
2023-02-15T01:09:35.158Z,56.55
2023-02-15T01:14:36.640Z,56.55
2023-02-15T01:19:38.108Z,56.55
2023-02-15T01:24:39.596Z,55.71
2023-02-15T01:29:41.067Z,56.48
2023-02-15T01:34:42.523Z,56.33
2023-02-15T01:39:44.211Z,56.61
2023-02-15T01:44:51.411Z,57.08
2023-02-15T01:49:59.621Z,56.87
2023-02-15T01:55:01.118Z,56.46
2023-02-15T02:00:03.684Z,57.15
2023-02-15T02:05:07.381Z,57.64
2023-02-15T02:10:10.468Z,57.66
2023-02-15T02:15:11.939Z,56.93
2023-02-15T02:20:29.828Z,56.79
2023-02-15T02:25:54.412Z,57.47
2023-02-15T02:30:58.636Z,57.24
2023-02-15T02:36:20.458Z,56.75
2023-02-15T02:41:46.623Z,57.18
2023-02-15T02:46:59.742Z,56.68
2023-02-15T02:52:07.512Z,57.26
2023-02-15T02:57:10.107Z,56.62
2023-02-15T03:02:20.132Z,57.57
2023-02-15T03:07:23.032Z,57.43
2023-02-15T03:12:24.465Z,58.36
2023-02-15T03:17:27.375Z,58.39
2023-02-15T03:22:31.908Z,59.85
2023-02-15T03:27:37.203Z,59.90
2023-02-15T03:32:38.694Z,59.63
2023-02-15T03:37:46.870Z,59.08
2023-02-15T03:42:50.381Z,59.90
2023-02-15T03:47:51.859Z,59.81
2023-02-15T03:52:53.805Z,60.03
2023-02-15T03:58:13.762Z,60.06
2023-02-15T04:03:34.609Z,60.03
2023-02-15T04:08:54.912Z,59.23
2023-02-15T04:13:57.543Z,59.72
2023-02-15T04:19:17.435Z,60.15
2023-02-15T04:24:37.562Z,60.05
2023-02-15T04:29:39.042Z,60.12
2023-02-15T04:34:40.502Z,60.09
2023-02-15T04:39:41.966Z,59.98
2023-02-15T04:44:43.703Z,60.06
2023-02-15T04:49:45.162Z,60.34
2023-02-15T04:54:46.652Z,60.02
2023-02-15T04:59:48.139Z,59.58
2023-02-15T05:04:49.640Z,60.37
2023-02-15T05:09:51.097Z,60.31
2023-02-15T05:14:52.567Z,60.68
2023-02-15T05:19:54.030Z,61.73
2023-02-15T05:25:13.915Z,60.39
2023-02-15T05:30:15.461Z,60.93
2023-02-15T05:35:17.035Z,61.42
2023-02-15T05:40:18.555Z,60.67
2023-02-15T05:45:20.034Z,60.42
2023-02-15T05:50:21.665Z,60.00
2023-02-15T05:55:24.145Z,61.39
2023-02-15T06:00:26.323Z,60.24
2023-02-15T06:05:27.813Z,60.09
2023-02-15T06:10:29.302Z,60.21
2023-02-15T06:15:30.786Z,60.45
2023-02-15T06:20:32.266Z,60.25
2023-02-15T06:25:36.060Z,60.79
2023-02-15T06:30:37.839Z,60.26
2023-02-15T06:35:39.325Z,60.53
2023-02-15T06:40:40.865Z,60.58
2023-02-15T06:45:42.329Z,60.74
2023-02-15T06:50:43.818Z,60.79
2023-02-15T06:55:45.284Z,60.77
2023-02-15T07:00:46.765Z,60.34
2023-02-15T07:05:49.730Z,60.35
2023-02-15T07:10:51.813Z,59.78
2023-02-15T07:15:53.372Z,59.55
2023-02-15T07:20:54.865Z,59.53
2023-02-15T07:25:59.980Z,59.77
2023-02-15T07:31:04.968Z,59.38
2023-02-15T07:36:06.908Z,59.55
2023-02-15T07:41:09.917Z,59.30
2023-02-15T07:46:13.201Z,58.96
2023-02-15T07:51:15.353Z,58.93
2023-02-15T07:56:16.827Z,58.97
2023-02-15T08:01:35.987Z,58.88
2023-02-15T08:06:37.486Z,58.49
2023-02-15T08:11:40.591Z,59.08
2023-02-15T08:16:45.503Z,59.13
2023-02-15T08:21:48.829Z,58.81
2023-02-15T08:26:50.272Z,59.06
2023-02-15T08:31:54.062Z,58.43
2023-02-15T08:36:55.575Z,58.44
2023-02-15T08:41:57.041Z,58.65
2023-02-15T08:47:03.679Z,58.52
2023-02-15T08:52:05.300Z,59.84
2023-02-15T08:57:10.209Z,59.31
2023-02-15T09:02:12.192Z,58.96
2023-02-15T09:07:13.785Z,58.80
2023-02-15T09:12:15.301Z,58.52
2023-02-15T09:17:16.765Z,57.39
2023-02-15T09:22:18.227Z,57.93
2023-02-15T09:27:19.687Z,58.14
2023-02-15T09:32:22.954Z,58.78
2023-02-15T09:37:24.452Z,58.72
2023-02-15T09:42:48.861Z,58.45
2023-02-15T09:48:17.449Z,58.13
2023-02-15T09:53:40.102Z,59.00
2023-02-15T09:59:05.518Z,58.17
2023-02-15T10:04:25.022Z,58.56
2023-02-15T10:09:48.089Z,58.56
2023-02-15T10:15:12.492Z,59.36
2023-02-15T10:20:20.616Z,58.87
2023-02-15T10:25:43.916Z,57.56
2023-02-15T10:30:50.005Z,58.06
2023-02-15T10:36:12.967Z,57.66
2023-02-15T10:41:37.225Z,57.60
2023-02-15T10:46:52.512Z,56.90
2023-02-15T10:52:12.380Z,56.76
2023-02-15T10:57:20.524Z,57.02
2023-02-15T11:03:00.282Z,56.08
2023-02-15T11:08:01.759Z,56.23
2023-02-15T11:13:06.225Z,55.27
2023-02-15T11:18:12.981Z,53.56
2023-02-15T11:23:17.085Z,53.78
2023-02-15T11:28:38.161Z,53.79
2023-02-15T11:33:41.139Z,54.14
2023-02-15T11:38:44.336Z,53.54
2023-02-15T11:43:59.306Z,52.64
2023-02-15T11:49:00.770Z,53.56
2023-02-15T11:54:02.496Z,52.62
2023-02-15T11:59:11.951Z,51.94
2023-02-15T12:04:35.777Z,52.78
2023-02-15T12:09:41.921Z,52.67
2023-02-15T12:14:50.753Z,52.60
2023-02-15T12:19:53.527Z,52.16
2023-02-15T12:25:02.294Z,52.90
2023-02-15T12:30:34.399Z,52.33
2023-02-15T12:35:36.820Z,51.50
2023-02-15T12:40:39.326Z,52.42
2023-02-15T12:45:40.823Z,51.97
2023-02-15T12:50:54.693Z,51.64
2023-02-15T12:55:58.034Z,51.85
2023-02-15T13:01:22.796Z,52.73
2023-02-15T13:06:24.456Z,51.56
2023-02-15T13:11:29.741Z,51.63
2023-02-15T13:16:37.626Z,52.13
2023-02-15T13:21:40.526Z,51.94
2023-02-15T13:26:45.599Z,52.39
2023-02-15T13:31:47.189Z,51.67
2023-02-15T13:37:13.173Z,52.53
2023-02-15T13:42:26.497Z,53.03
2023-02-15T13:47:36.039Z,52.88
2023-02-15T13:52:44.852Z,52.22
2023-02-15T13:58:02.487Z,52.57
2023-02-15T14:03:34.726Z,52.75
2023-02-15T14:08:52.666Z,53.43
2023-02-15T14:14:24.700Z,52.86
2023-02-15T14:19:28.180Z,52.67
2023-02-15T14:24:38.561Z,53.63
2023-02-15T14:29:57.963Z,53.45
2023-02-15T14:35:03.980Z,53.85
2023-02-15T14:40:46.866Z,53.52
2023-02-15T14:45:59.948Z,54.44
2023-02-15T14:51:02.396Z,54.10
2023-02-15T14:56:22.992Z,53.78
2023-02-15T15:01:34.378Z,54.43
2023-02-15T15:06:38.065Z,53.22
2023-02-15T15:11:44.287Z,54.29
2023-02-15T15:16:50.018Z,54.77
2023-02-15T15:21:51.355Z,55.07
2023-02-15T15:27:27.262Z,54.83
2023-02-15T15:32:28.722Z,54.96
2023-02-15T15:37:57.752Z,55.47
2023-02-15T15:43:14.123Z,54.84
2023-02-15T15:48:25.548Z,54.86
2023-02-15T15:53:28.661Z,55.63
2023-02-15T15:58:32.514Z,55.67
2023-02-15T16:03:34.087Z,55.23
2023-02-15T16:08:36.830Z,55.52
2023-02-15T16:13:38.305Z,55.07
2023-02-15T16:18:43.141Z,54.43
2023-02-15T16:24:00.617Z,55.65
2023-02-15T16:29:02.419Z,55.96
2023-02-15T16:34:18.611Z,56.23
2023-02-15T16:39:20.693Z,56.02
2023-02-15T16:44:22.162Z,56.24
2023-02-15T16:49:27.427Z,55.64
2023-02-15T16:54:29.630Z,54.95
2023-02-15T16:59:40.770Z,56.69
2023-02-15T17:04:43.202Z,55.95
2023-02-15T17:09:57.504Z,55.94
2023-02-15T17:14:58.991Z,56.36
2023-02-15T17:20:00.500Z,55.37
2023-02-15T17:25:05.418Z,55.81
2023-02-15T17:30:15.215Z,55.15
2023-02-15T17:35:25.631Z,55.20
2023-02-15T17:40:32.238Z,55.54
2023-02-15T17:45:40.533Z,56.21
2023-02-15T17:50:42.059Z,55.87
2023-02-15T17:55:43.582Z,56.00
2023-02-15T18:01:26.416Z,56.82
2023-02-15T18:06:46.751Z,56.66
2023-02-15T18:11:50.570Z,56.96
2023-02-15T18:16:52.100Z,56.66
2023-02-15T18:21:55.656Z,56.37
2023-02-15T18:26:57.129Z,56.33
2023-02-15T18:31:58.697Z,55.73
2023-02-15T18:37:00.934Z,55.15
2023-02-15T18:42:03.088Z,56.12
2023-02-15T18:47:04.611Z,55.83
2023-02-15T18:52:06.096Z,55.75
2023-02-15T18:57:09.337Z,56.06
2023-02-15T19:02:14.677Z,56.26
2023-02-15T19:07:29.826Z,56.42
2023-02-15T19:12:31.400Z,55.87
2023-02-15T19:17:32.853Z,55.57
2023-02-15T19:22:34.826Z,55.30
2023-02-15T19:27:36.349Z,54.89
2023-02-15T19:32:37.815Z,54.70
2023-02-15T19:37:42.263Z,55.02
2023-02-15T19:42:44.039Z,54.77
2023-02-15T19:47:47.373Z,54.72
2023-02-15T19:52:48.882Z,54.91
2023-02-15T19:57:52.181Z,55.02
2023-02-15T20:02:53.765Z,54.69
2023-02-15T20:07:55.218Z,54.42
2023-02-15T20:12:56.713Z,53.87
2023-02-15T20:17:59.063Z,53.80
2023-02-15T20:23:00.546Z,53.53
2023-02-15T20:28:02.025Z,53.38
2023-02-15T20:33:03.540Z,53.70
2023-02-15T20:38:05.460Z,53.98
2023-02-15T20:43:09.403Z,53.38
2023-02-15T20:48:10.883Z,53.10
2023-02-15T20:53:12.583Z,53.12
2023-02-15T20:58:24.940Z,53.00
2023-02-15T21:03:30.228Z,52.49
2023-02-15T21:08:31.723Z,51.95
2023-02-15T21:13:34.072Z,52.75
2023-02-15T21:18:37.687Z,53.41
2023-02-15T21:23:40.235Z,52.50
2023-02-15T21:28:41.968Z,52.44
2023-02-15T21:33:44.373Z,52.07
2023-02-15T21:38:46.024Z,52.41
2023-02-15T21:44:05.886Z,52.27
2023-02-15T21:49:07.338Z,52.18
2023-02-15T21:54:12.708Z,52.48
2023-02-15T21:59:15.549Z,52.01
2023-02-15T22:04:23.104Z,52.11
2023-02-15T22:09:26.584Z,51.92
2023-02-15T22:14:34.268Z,52.10
2023-02-15T22:19:35.743Z,52.48
2023-02-15T22:24:37.314Z,52.46
2023-02-15T22:29:38.778Z,52.97
2023-02-15T22:34:40.241Z,53.02
2023-02-15T22:39:41.721Z,53.42
2023-02-15T22:44:43.186Z,53.12
2023-02-15T22:49:44.659Z,53.16
2023-02-15T22:54:46.148Z,53.54
2023-02-15T22:59:47.614Z,53.71
2023-02-15T23:04:49.189Z,54.74
2023-02-15T23:09:51.294Z,54.08
2023-02-15T23:14:53.095Z,53.96
2023-02-15T23:19:54.558Z,53.24
2023-02-15T23:24:56.018Z,54.42
2023-02-15T23:29:57.528Z,54.47
2023-02-15T23:34:59.262Z,54.25
2023-02-15T23:40:19.121Z,53.63
2023-02-15T23:45:23.677Z,54.14
2023-02-15T23:50:27.556Z,53.49
2023-02-15T23:55:37.099Z,53.02
